createdAt,value
2023-03-03T00:00:37.664Z,3.75
2023-03-03T00:01:42.828Z,3.75
2023-03-03T00:03:05.306Z,3.73
2023-03-03T00:04:10.513Z,3.73
2023-03-03T00:05:32.967Z,3.70
2023-03-03T00:06:55.504Z,3.68
2023-03-03T00:08:17.985Z,3.67
2023-03-03T00:09:40.445Z,3.65
2023-03-03T00:11:04.938Z,3.63
2023-03-03T00:12:28.845Z,3.61
2023-03-03T00:13:55.165Z,3.58
2023-03-03T00:15:19.585Z,3.55
2023-03-03T00:16:42.781Z,3.54
2023-03-03T00:18:17.751Z,3.53
2023-03-03T00:19:41.100Z,3.54
2023-03-03T00:21:10.261Z,3.56
2023-03-03T00:22:37.314Z,3.60
2023-03-03T00:24:22.197Z,3.64
2023-03-03T00:25:45.816Z,3.66
2023-03-03T00:27:19.530Z,3.64
2023-03-03T00:28:45.564Z,3.70
2023-03-03T00:30:20.875Z,3.68
2023-03-03T00:31:43.370Z,3.70
2023-03-03T00:33:20.668Z,3.67
2023-03-03T00:34:44.177Z,3.68
2023-03-03T00:36:32.946Z,3.68
2023-03-03T00:37:56.647Z,3.72
2023-03-03T00:39:27.116Z,3.75
2023-03-03T00:40:49.892Z,3.77
2023-03-03T00:42:13.574Z,3.76
2023-03-03T00:43:37.156Z,3.77
2023-03-03T00:45:00.956Z,3.79
2023-03-03T00:46:25.525Z,3.82
2023-03-03T00:47:47.776Z,3.84
2023-03-03T00:49:28.557Z,3.85
2023-03-03T00:50:53.430Z,3.87
2023-03-03T00:52:17.874Z,3.87
2023-03-03T00:53:40.406Z,3.85
2023-03-03T00:55:02.502Z,3.86
2023-03-03T00:56:25.886Z,3.88
2023-03-03T00:57:47.975Z,3.90
2023-03-03T00:59:10.577Z,3.92
2023-03-03T01:00:34.206Z,3.95
2023-03-03T01:01:56.926Z,3.96
2023-03-03T01:03:21.967Z,3.99
2023-03-03T01:04:50.146Z,4.01
2023-03-03T01:06:14.103Z,4.00
2023-03-03T01:07:35.625Z,4.01
2023-03-03T01:08:58.227Z,4.00
2023-03-03T01:10:19.835Z,4.01
2023-03-03T01:11:42.527Z,3.99
2023-03-03T01:13:05.331Z,3.99
2023-03-03T01:14:28.133Z,4.00
2023-03-03T01:15:51.829Z,4.01
2023-03-03T01:17:13.414Z,4.00
2023-03-03T01:18:37.237Z,4.00
2023-03-03T01:20:00.482Z,3.98
2023-03-03T01:21:22.984Z,4.00
2023-03-03T01:22:44.569Z,4.01
2023-03-03T01:24:07.131Z,4.02
2023-03-03T01:25:29.998Z,4.04
2023-03-03T01:26:52.560Z,4.05
2023-03-03T01:28:14.218Z,4.09
2023-03-03T01:29:36.961Z,4.12
2023-03-03T01:31:02.729Z,4.11
2023-03-03T01:32:24.731Z,4.08
2023-03-03T01:33:47.513Z,4.06
2023-03-03T01:35:10.860Z,4.06
2023-03-03T01:36:33.845Z,4.05
2023-03-03T01:37:55.713Z,4.06
2023-03-03T01:39:18.283Z,4.08
2023-03-03T01:40:41.456Z,4.08
2023-03-03T01:42:03.867Z,4.10
2023-03-03T01:43:28.638Z,4.11
2023-03-03T01:45:12.597Z,4.11
2023-03-03T01:46:46.915Z,4.10
2023-03-03T01:48:14.302Z,4.09
2023-03-03T01:49:43.226Z,4.08
2023-03-03T01:51:15.692Z,4.09
2023-03-03T01:52:41.917Z,4.09
2023-03-03T01:54:06.778Z,4.07
2023-03-03T01:55:33.016Z,4.07
2023-03-03T01:57:01.155Z,4.07
2023-03-03T01:58:28.853Z,4.08
2023-03-03T01:59:52.344Z,4.06
2023-03-03T02:01:20.177Z,4.05
2023-03-03T02:02:44.894Z,4.03
2023-03-03T02:04:06.982Z,4.01
2023-03-03T02:05:30.124Z,4.01
2023-03-03T02:07:01.752Z,4.00
2023-03-03T02:08:29.750Z,3.96
2023-03-03T02:09:58.845Z,3.94
2023-03-03T02:11:22.835Z,3.91
2023-03-03T02:12:49.904Z,3.92
2023-03-03T02:14:12.879Z,3.92
2023-03-03T02:15:36.841Z,3.92
2023-03-03T02:16:59.745Z,3.91
2023-03-03T02:18:22.322Z,3.89
2023-03-03T02:19:50.902Z,3.88
2023-03-03T02:21:16.287Z,3.89
2023-03-03T02:22:45.141Z,3.90
2023-03-03T02:24:16.644Z,3.91
2023-03-03T02:25:49.572Z,3.95
2023-03-03T02:27:14.480Z,3.98
2023-03-03T02:28:37.883Z,4.00
2023-03-03T02:30:11.735Z,4.01
2023-03-03T02:31:34.828Z,4.01
2023-03-03T02:32:56.350Z,4.03
2023-03-03T02:34:18.960Z,4.04
2023-03-03T02:35:41.601Z,4.05
2023-03-03T02:37:04.888Z,4.08
2023-03-03T02:38:29.820Z,4.09
2023-03-03T02:39:52.354Z,4.11
2023-03-03T02:41:21.079Z,4.11
2023-03-03T02:42:47.759Z,4.11
2023-03-03T02:44:12.204Z,4.12
2023-03-03T02:45:33.783Z,4.14
2023-03-03T02:46:57.371Z,4.14
2023-03-03T02:48:19.014Z,4.12
2023-03-03T02:49:42.847Z,4.10
2023-03-03T02:51:04.866Z,4.12
2023-03-03T02:52:27.365Z,4.14
2023-03-03T02:53:49.603Z,4.16
2023-03-03T02:55:12.127Z,4.19
2023-03-03T02:56:35.129Z,4.22
2023-03-03T02:57:59.035Z,4.26
2023-03-03T02:59:21.550Z,4.30
2023-03-03T03:00:43.167Z,4.31
2023-03-03T03:02:07.242Z,4.31
2023-03-03T03:03:28.834Z,4.30
2023-03-03T03:04:51.364Z,4.26
2023-03-03T03:06:13.139Z,4.24
2023-03-03T03:07:35.698Z,4.21
2023-03-03T03:08:58.210Z,4.19
2023-03-03T03:10:19.756Z,4.14
2023-03-03T03:11:42.677Z,4.11
2023-03-03T03:12:44.260Z,4.08
2023-03-03T03:13:48.089Z,4.06
2023-03-03T03:14:49.644Z,4.06
2023-03-03T03:15:52.584Z,4.06
2023-03-03T03:16:54.224Z,4.07
2023-03-03T03:17:56.735Z,4.04
2023-03-03T03:18:59.712Z,4.06
2023-03-03T03:20:02.210Z,4.04
2023-03-03T03:21:08.460Z,4.05
2023-03-03T03:22:10.983Z,4.05
2023-03-03T03:23:23.522Z,4.07
2023-03-03T03:24:25.236Z,4.07
2023-03-03T03:25:27.724Z,4.08
2023-03-03T03:26:29.747Z,4.07
2023-03-03T03:27:32.328Z,4.07
2023-03-03T03:28:34.325Z,4.07
2023-03-03T03:29:38.216Z,4.05
2023-03-03T03:30:40.250Z,4.05
2023-03-03T03:31:44.095Z,4.03
2023-03-03T03:32:45.801Z,4.01
2023-03-03T03:33:48.936Z,3.99
2023-03-03T03:34:50.731Z,3.98
2023-03-03T03:35:53.373Z,3.98
2023-03-03T03:36:54.940Z,3.99
2023-03-03T03:37:57.462Z,4.01
2023-03-03T03:38:58.987Z,4.04
2023-03-03T03:40:04.884Z,4.06
2023-03-03T03:41:07.656Z,4.10
2023-03-03T03:42:11.373Z,4.11
2023-03-03T03:43:13.156Z,4.12
2023-03-03T03:44:15.972Z,4.12
2023-03-03T03:45:18.984Z,4.14
2023-03-03T03:46:21.588Z,4.16
2023-03-03T03:47:23.706Z,4.17
2023-03-03T03:48:26.481Z,4.17
2023-03-03T03:49:28.149Z,4.16
2023-03-03T03:50:30.660Z,4.16
2023-03-03T03:51:33.881Z,4.15
2023-03-03T03:52:36.432Z,4.16
2023-03-03T03:53:38.658Z,4.16
2023-03-03T03:54:41.338Z,4.17
2023-03-03T03:55:42.909Z,4.16
2023-03-03T03:56:45.444Z,4.17
2023-03-03T03:57:47.685Z,4.16
2023-03-03T03:58:54.579Z,4.15
2023-03-03T03:59:56.233Z,4.12
2023-03-03T04:01:04.855Z,4.10
2023-03-03T04:02:06.551Z,4.08
2023-03-03T04:03:19.285Z,4.07
2023-03-03T04:04:21.008Z,4.04
2023-03-03T04:05:23.684Z,4.03
2023-03-03T04:06:25.580Z,4.02
2023-03-03T04:07:28.120Z,4.02
2023-03-03T04:08:29.691Z,4.02
2023-03-03T04:09:32.217Z,4.03
2023-03-03T04:10:33.739Z,4.04
2023-03-03T04:11:36.316Z,4.04
2023-03-03T04:12:38.614Z,4.04
2023-03-03T04:13:41.440Z,4.04
2023-03-03T04:14:44.641Z,4.07
2023-03-03T04:15:47.513Z,4.07
2023-03-03T04:16:50.692Z,4.05
2023-03-03T04:17:53.164Z,4.06
2023-03-03T04:18:54.760Z,4.05
2023-03-03T04:19:57.996Z,4.04
2023-03-03T04:20:59.744Z,4.03
2023-03-03T04:22:12.551Z,4.04
2023-03-03T04:23:23.263Z,4.03
2023-03-03T04:24:26.148Z,4.01
2023-03-03T04:25:35.250Z,3.99
2023-03-03T04:26:37.772Z,4.00
2023-03-03T04:27:39.291Z,4.00
2023-03-03T04:28:41.929Z,4.00
2023-03-03T04:29:43.526Z,3.97
2023-03-03T04:30:56.043Z,3.98
2023-03-03T04:31:58.994Z,3.98
2023-03-03T04:33:01.481Z,3.96
2023-03-03T04:34:02.993Z,3.95
2023-03-03T04:35:08.528Z,3.93
2023-03-03T04:36:11.322Z,3.92
2023-03-03T04:37:12.951Z,3.91
2023-03-03T04:38:15.440Z,3.90
2023-03-03T04:39:17.027Z,3.90
2023-03-03T04:40:19.671Z,3.89
2023-03-03T04:41:21.353Z,3.87
2023-03-03T04:42:23.852Z,3.84
2023-03-03T04:43:25.513Z,3.82
2023-03-03T04:44:28.034Z,3.79
2023-03-03T04:45:29.545Z,3.77
2023-03-03T04:46:32.461Z,3.78
2023-03-03T04:47:35.711Z,3.78
2023-03-03T04:48:38.338Z,3.78
2023-03-03T04:49:39.881Z,3.77
2023-03-03T04:50:42.841Z,3.78
2023-03-03T04:51:44.358Z,3.74
2023-03-03T04:52:46.866Z,3.75
2023-03-03T04:53:51.131Z,3.75
2023-03-03T04:54:54.878Z,3.76
2023-03-03T04:55:57.914Z,3.75
2023-03-03T04:56:59.559Z,3.75
2023-03-03T04:58:04.636Z,3.76
2023-03-03T04:59:06.386Z,3.76
2023-03-03T05:00:10.076Z,3.76
2023-03-03T05:01:16.590Z,3.77
2023-03-03T05:02:19.511Z,3.79
2023-03-03T05:03:23.233Z,3.81
2023-03-03T05:04:25.863Z,3.82
2023-03-03T05:05:38.334Z,3.85
2023-03-03T05:06:41.942Z,3.88
2023-03-03T05:07:44.430Z,3.89
2023-03-03T05:08:46.723Z,3.92
2023-03-03T05:09:49.222Z,3.94
2023-03-03T05:10:52.254Z,3.95
2023-03-03T05:11:55.090Z,3.98
2023-03-03T05:12:56.607Z,3.99
2023-03-03T05:13:59.389Z,3.98
2023-03-03T05:15:01.420Z,3.98
2023-03-03T05:16:14.638Z,3.94
2023-03-03T05:17:16.398Z,3.92
2023-03-03T05:18:19.825Z,3.90
2023-03-03T05:19:23.287Z,3.90
2023-03-03T05:20:26.335Z,3.90
2023-03-03T05:21:27.866Z,3.90
2023-03-03T05:22:30.334Z,3.89
2023-03-03T05:23:31.871Z,3.88
2023-03-03T05:24:34.450Z,3.85
2023-03-03T05:25:36.014Z,3.86
2023-03-03T05:26:48.469Z,3.84
2023-03-03T05:27:50.144Z,3.84
2023-03-03T05:28:52.611Z,3.82
2023-03-03T05:29:54.321Z,3.80
2023-03-03T05:30:56.797Z,3.80
2023-03-03T05:31:58.446Z,3.80
2023-03-03T05:33:01.477Z,3.80
2023-03-03T05:34:04.023Z,3.81
2023-03-03T05:35:07.739Z,3.84
2023-03-03T05:36:16.996Z,3.87
2023-03-03T05:37:28.624Z,3.89
2023-03-03T05:38:41.143Z,3.90
2023-03-03T05:39:44.568Z,3.92
2023-03-03T05:40:48.086Z,3.91
2023-03-03T05:41:49.650Z,3.90
2023-03-03T05:42:52.678Z,3.89
2023-03-03T05:43:54.275Z,3.88
2023-03-03T05:44:56.805Z,3.88
2023-03-03T05:45:58.864Z,3.87
2023-03-03T05:47:01.447Z,3.88
2023-03-03T05:48:04.732Z,3.88
2023-03-03T05:49:07.234Z,3.89
2023-03-03T05:50:12.141Z,3.89
2023-03-03T05:51:14.784Z,3.87
2023-03-03T05:52:16.680Z,3.85
2023-03-03T05:53:21.272Z,3.83
2023-03-03T05:54:23.074Z,3.81
2023-03-03T05:55:26.123Z,3.83
2023-03-03T05:56:27.798Z,3.83
2023-03-03T05:57:32.606Z,3.83
2023-03-03T05:58:34.305Z,3.83
2023-03-03T05:59:36.793Z,3.84
2023-03-03T06:00:38.403Z,3.84
2023-03-03T06:01:42.470Z,3.82
2023-03-03T06:02:44.293Z,3.81
2023-03-03T06:03:46.801Z,3.81
2023-03-03T06:04:48.344Z,3.83
2023-03-03T06:05:56.618Z,3.85
2023-03-03T06:06:58.238Z,3.87
2023-03-03T06:08:00.880Z,3.88
2023-03-03T06:09:02.491Z,3.87
2023-03-03T06:10:14.989Z,3.86
2023-03-03T06:11:18.506Z,3.86
2023-03-03T06:12:22.187Z,3.87
2023-03-03T06:13:24.185Z,3.85
2023-03-03T06:14:29.515Z,3.86
2023-03-03T06:15:32.264Z,3.86
2023-03-03T06:16:33.881Z,3.85
2023-03-03T06:17:36.631Z,3.84
2023-03-03T06:18:38.338Z,3.82
2023-03-03T06:19:41.391Z,3.80
2023-03-03T06:20:42.927Z,3.81
2023-03-03T06:21:46.817Z,3.79
2023-03-03T06:22:48.412Z,3.78
2023-03-03T06:23:50.907Z,3.75
2023-03-03T06:24:52.605Z,3.76
2023-03-03T06:25:55.127Z,3.76
2023-03-03T06:26:57.724Z,3.78
2023-03-03T06:28:00.211Z,3.80
2023-03-03T06:29:01.959Z,3.79
2023-03-03T06:30:05.064Z,3.77
2023-03-03T06:31:16.654Z,3.75
2023-03-03T06:32:19.292Z,3.76
2023-03-03T06:33:21.016Z,3.77
2023-03-03T06:34:33.541Z,3.79
2023-03-03T06:35:41.525Z,3.78
2023-03-03T06:36:44.613Z,3.78
2023-03-03T06:37:50.598Z,3.77
2023-03-03T06:38:53.328Z,3.76
2023-03-03T06:40:06.293Z,3.76
2023-03-03T06:41:08.790Z,3.78
2023-03-03T06:42:10.673Z,3.76
2023-03-03T06:43:13.209Z,3.72
2023-03-03T06:44:28.861Z,3.67
2023-03-03T06:45:38.163Z,3.65
2023-03-03T06:46:40.666Z,3.65
2023-03-03T06:47:42.199Z,3.67
2023-03-03T06:48:45.075Z,3.70
2023-03-03T06:49:46.691Z,3.72
2023-03-03T06:50:49.306Z,3.76
2023-03-03T06:51:50.959Z,3.80
2023-03-03T06:53:04.008Z,3.82
2023-03-03T06:54:11.772Z,3.82
2023-03-03T06:55:24.645Z,3.82
2023-03-03T06:56:27.280Z,3.83
2023-03-03T06:57:31.769Z,3.82
2023-03-03T06:58:36.002Z,3.79
2023-03-03T06:59:38.720Z,3.78
2023-03-03T07:00:42.170Z,3.76
2023-03-03T07:01:48.583Z,3.76
2023-03-03T07:02:53.890Z,3.77
2023-03-03T07:03:56.421Z,3.76
2023-03-03T07:04:59.415Z,3.76
2023-03-03T07:06:03.540Z,3.73
2023-03-03T07:07:14.951Z,3.74
2023-03-03T07:08:20.947Z,3.74
2023-03-03T07:09:25.528Z,3.75
2023-03-03T07:10:30.075Z,3.75
2023-03-03T07:11:33.180Z,3.77
2023-03-03T07:12:36.589Z,3.78
2023-03-03T07:13:47.099Z,3.79
2023-03-03T07:14:55.617Z,3.82
2023-03-03T07:16:06.632Z,3.83
2023-03-03T07:17:14.993Z,3.85
2023-03-03T07:18:33.473Z,3.86
2023-03-03T07:19:36.216Z,3.87
2023-03-03T07:20:41.016Z,3.88
2023-03-03T07:21:42.856Z,3.90
2023-03-03T07:22:45.457Z,3.91
2023-03-03T07:24:02.173Z,3.91
2023-03-03T07:25:19.541Z,3.94
2023-03-03T07:26:28.736Z,3.94
2023-03-03T07:27:32.766Z,3.91
2023-03-03T07:28:34.522Z,3.89
2023-03-03T07:29:41.131Z,3.87
2023-03-03T07:30:43.826Z,3.88
2023-03-03T07:31:57.759Z,3.91
2023-03-03T07:33:00.527Z,3.94
2023-03-03T07:34:05.451Z,3.98
2023-03-03T07:35:28.164Z,4.03
2023-03-03T07:36:33.588Z,4.06
2023-03-03T07:37:38.996Z,4.05
2023-03-03T07:38:47.843Z,4.04
2023-03-03T07:39:50.762Z,4.04
2023-03-03T07:40:55.082Z,4.04
2023-03-03T07:42:08.591Z,4.05
2023-03-03T07:43:31.554Z,4.04
2023-03-03T07:44:37.543Z,4.04
2023-03-03T07:45:39.816Z,4.06
2023-03-03T07:46:52.636Z,4.10
2023-03-03T07:48:09.174Z,4.11
2023-03-03T07:49:22.844Z,4.11
2023-03-03T07:50:24.622Z,4.09
2023-03-03T07:51:29.561Z,4.10
2023-03-03T07:52:39.108Z,4.13
2023-03-03T07:53:41.637Z,4.11
2023-03-03T07:54:47.308Z,4.11
2023-03-03T07:55:50.176Z,4.14
2023-03-03T07:56:53.268Z,4.14
2023-03-03T07:57:59.158Z,4.14
2023-03-03T07:59:08.472Z,4.16
2023-03-03T08:00:44.626Z,4.17
2023-03-03T08:01:49.634Z,4.20
2023-03-03T08:02:59.221Z,4.22
2023-03-03T08:04:00.899Z,4.26
2023-03-03T08:05:26.404Z,4.28
2023-03-03T08:06:40.223Z,4.32
2023-03-03T08:07:42.703Z,4.35
2023-03-03T08:08:47.253Z,4.37
2023-03-03T08:09:52.065Z,4.38
2023-03-03T08:10:56.452Z,4.37
2023-03-03T08:12:02.968Z,4.39
2023-03-03T08:13:18.584Z,4.41
2023-03-03T08:14:26.105Z,4.44
2023-03-03T08:15:37.619Z,4.43
2023-03-03T08:16:41.046Z,4.40
2023-03-03T08:17:45.345Z,4.35
2023-03-03T08:18:50.473Z,4.32
2023-03-03T08:19:53.722Z,4.31
2023-03-03T08:20:58.692Z,4.30
2023-03-03T08:22:09.458Z,4.32
2023-03-03T08:23:12.615Z,4.35
2023-03-03T08:24:15.477Z,4.34
2023-03-03T08:25:17.246Z,4.34
2023-03-03T08:26:22.083Z,4.33
2023-03-03T08:27:23.682Z,4.34
2023-03-03T08:28:26.522Z,4.36
2023-03-03T08:29:28.134Z,4.37
2023-03-03T08:30:36.508Z,4.40
2023-03-03T08:31:41.938Z,4.40
2023-03-03T08:32:43.858Z,4.41
2023-03-03T08:33:54.721Z,4.43
2023-03-03T08:34:56.232Z,4.45
2023-03-03T08:36:01.322Z,4.45
2023-03-03T08:37:03.493Z,4.45
2023-03-03T08:38:19.701Z,4.45
2023-03-03T08:39:21.427Z,4.45
2023-03-03T08:40:25.563Z,4.47
2023-03-03T08:41:29.540Z,4.46
2023-03-03T08:42:37.545Z,4.50
2023-03-03T08:43:40.079Z,4.50
2023-03-03T08:44:42.998Z,4.52
2023-03-03T08:45:45.593Z,4.53
2023-03-03T08:46:48.147Z,4.51
2023-03-03T08:47:49.817Z,4.52
2023-03-03T08:48:53.252Z,4.57
2023-03-03T08:49:55.186Z,4.61
2023-03-03T08:50:57.930Z,4.65
2023-03-03T08:52:10.458Z,4.68
2023-03-03T08:53:25.209Z,4.69
2023-03-03T08:54:26.849Z,4.71
2023-03-03T08:55:35.636Z,4.74
2023-03-03T08:56:38.651Z,4.76
2023-03-03T08:57:41.500Z,4.76
2023-03-03T08:59:01.180Z,4.78
2023-03-03T09:00:03.921Z,4.82
2023-03-03T09:01:07.698Z,4.85
2023-03-03T09:02:09.367Z,4.85
2023-03-03T09:03:12.056Z,4.85
2023-03-03T09:04:14.690Z,4.84
2023-03-03T09:05:17.666Z,4.81
2023-03-03T09:06:20.548Z,4.80
2023-03-03T09:07:27.592Z,4.77
2023-03-03T09:08:30.538Z,4.74
2023-03-03T09:09:32.114Z,4.76
2023-03-03T09:10:39.388Z,4.76
2023-03-03T09:11:43.426Z,4.77
2023-03-03T09:12:49.196Z,4.79
2023-03-03T09:13:53.147Z,4.82
2023-03-03T09:14:59.559Z,4.84
2023-03-03T09:16:14.924Z,4.84
2023-03-03T09:17:25.943Z,4.85
2023-03-03T09:18:36.302Z,4.85
2023-03-03T09:19:37.811Z,4.89
2023-03-03T09:20:41.837Z,4.92
2023-03-03T09:21:43.502Z,4.96
2023-03-03T09:22:46.140Z,4.99
2023-03-03T09:23:54.110Z,5.01
2023-03-03T09:24:59.350Z,5.06
2023-03-03T09:26:28.042Z,5.10
2023-03-03T09:27:36.234Z,5.13
2023-03-03T09:28:38.115Z,5.16
2023-03-03T09:29:41.595Z,5.17
2023-03-03T09:30:48.742Z,5.21
2023-03-03T09:31:56.297Z,5.23
2023-03-03T09:32:58.326Z,5.22
2023-03-03T09:34:01.976Z,5.21
2023-03-03T09:35:31.008Z,5.21
2023-03-03T09:36:37.582Z,5.23
2023-03-03T09:37:44.207Z,5.23
2023-03-03T09:38:58.026Z,5.22
2023-03-03T09:40:01.848Z,5.23
2023-03-03T09:41:34.979Z,5.24
2023-03-03T09:43:00.602Z,5.23
2023-03-03T09:44:25.141Z,5.17
2023-03-03T09:45:37.717Z,5.15
2023-03-03T09:46:52.157Z,5.16
2023-03-03T09:48:18.508Z,5.17
2023-03-03T09:49:31.891Z,5.16
2023-03-03T09:50:45.383Z,5.16
2023-03-03T09:52:01.930Z,5.19
2023-03-03T09:53:19.212Z,5.22
2023-03-03T09:54:39.529Z,5.24
2023-03-03T09:55:49.372Z,5.26
2023-03-03T09:56:56.457Z,5.29
2023-03-03T09:58:16.051Z,5.29
2023-03-03T09:59:44.852Z,5.28
2023-03-03T10:01:00.474Z,5.27
2023-03-03T10:02:32.869Z,5.29
2023-03-03T10:03:48.137Z,5.33
2023-03-03T10:05:14.619Z,5.36
2023-03-03T10:06:26.400Z,5.38
2023-03-03T10:07:43.871Z,5.39
2023-03-03T10:09:11.359Z,5.39
2023-03-03T10:10:26.982Z,5.43
2023-03-03T10:11:35.655Z,5.47
2023-03-03T10:12:46.460Z,5.52
2023-03-03T10:14:07.612Z,5.58
2023-03-03T10:15:21.982Z,5.61
2023-03-03T10:16:44.009Z,5.62
2023-03-03T10:17:50.897Z,5.63
2023-03-03T10:18:59.277Z,5.63
2023-03-03T10:20:13.236Z,5.64
2023-03-03T10:21:24.911Z,5.64
2023-03-03T10:22:36.593Z,5.66
2023-03-03T10:23:58.718Z,5.70
2023-03-03T10:25:15.663Z,5.69
2023-03-03T10:26:41.941Z,5.69
2023-03-03T10:28:06.216Z,5.75
2023-03-03T10:29:30.860Z,5.80
2023-03-03T10:30:58.529Z,5.84
2023-03-03T10:32:27.217Z,5.89
2023-03-03T10:33:38.171Z,5.92
2023-03-03T10:35:03.928Z,5.94
2023-03-03T10:36:26.026Z,5.98
2023-03-03T10:37:38.010Z,6.04
2023-03-03T10:38:55.332Z,6.03
2023-03-03T10:40:10.916Z,5.99
2023-03-03T10:41:35.122Z,5.97
2023-03-03T10:42:55.945Z,5.95
2023-03-03T10:44:08.679Z,5.98
2023-03-03T10:45:35.035Z,6.03
2023-03-03T10:46:52.962Z,6.10
2023-03-03T10:48:16.047Z,6.15
2023-03-03T10:49:29.841Z,6.17
2023-03-03T10:50:41.556Z,6.17
2023-03-03T10:52:10.080Z,6.15
2023-03-03T10:53:25.945Z,6.15
2023-03-03T10:54:40.513Z,6.16
2023-03-03T10:55:52.248Z,6.17
2023-03-03T10:57:05.154Z,6.16
2023-03-03T10:58:46.152Z,6.14
2023-03-03T11:00:02.563Z,6.09
2023-03-03T11:01:24.117Z,6.06
2023-03-03T11:02:33.124Z,6.01
2023-03-03T11:03:56.050Z,5.98
2023-03-03T11:05:24.387Z,5.92
2023-03-03T11:06:36.833Z,5.91
2023-03-03T11:07:43.989Z,5.92
2023-03-03T11:08:53.770Z,5.95
2023-03-03T11:10:06.046Z,5.98
2023-03-03T11:11:16.380Z,6.00
2023-03-03T11:12:30.126Z,6.04
2023-03-03T11:13:43.327Z,6.08
2023-03-03T11:14:50.904Z,6.10
2023-03-03T11:16:19.630Z,6.13
2023-03-03T11:17:31.228Z,6.16
2023-03-03T11:18:44.745Z,6.20
2023-03-03T11:20:02.233Z,6.22
2023-03-03T11:21:25.779Z,6.26
2023-03-03T11:22:38.257Z,6.29
2023-03-03T11:23:53.337Z,6.33
2023-03-03T11:25:07.776Z,6.37
2023-03-03T11:26:17.706Z,6.40
2023-03-03T11:27:33.999Z,6.43
2023-03-03T11:28:56.102Z,6.45
2023-03-03T11:30:30.041Z,6.53
2023-03-03T11:31:44.267Z,6.56
2023-03-03T11:32:51.852Z,6.56
2023-03-03T11:34:02.288Z,6.57
2023-03-03T11:35:20.001Z,6.55
2023-03-03T11:36:28.482Z,6.57
2023-03-03T11:37:41.633Z,6.57
2023-03-03T11:38:57.588Z,6.57
2023-03-03T11:40:09.832Z,6.58
2023-03-03T11:41:20.758Z,6.62
2023-03-03T11:42:28.436Z,6.63
2023-03-03T11:43:39.634Z,6.64
2023-03-03T11:44:47.149Z,6.67
2023-03-03T11:45:54.352Z,6.70
2023-03-03T11:47:01.635Z,6.75
2023-03-03T11:48:13.249Z,6.81
2023-03-03T11:49:22.557Z,6.85
2023-03-03T11:50:29.097Z,6.88
2023-03-03T11:51:42.636Z,6.88
2023-03-03T11:52:53.142Z,6.88
2023-03-03T11:53:59.523Z,6.89
2023-03-03T11:55:10.155Z,6.89
2023-03-03T11:56:22.911Z,6.89
2023-03-03T11:57:30.157Z,6.89
2023-03-03T11:58:39.798Z,6.90
2023-03-03T11:59:49.141Z,6.90
2023-03-03T12:00:55.132Z,6.89
2023-03-03T12:02:23.333Z,6.86
2023-03-03T12:03:32.635Z,6.86
2023-03-03T12:04:50.951Z,6.85
2023-03-03T12:06:02.707Z,6.86
2023-03-03T12:07:19.656Z,6.90
2023-03-03T12:08:37.773Z,6.93
2023-03-03T12:09:54.952Z,6.96
2023-03-03T12:11:01.225Z,6.99
2023-03-03T12:12:08.687Z,7.02
2023-03-03T12:13:23.435Z,7.04
2023-03-03T12:14:40.863Z,7.06
2023-03-03T12:15:52.415Z,7.06
2023-03-03T12:16:58.159Z,7.04
2023-03-03T12:18:26.596Z,7.05
2023-03-03T12:19:35.824Z,7.03
2023-03-03T12:20:50.342Z,7.05
2023-03-03T12:22:05.790Z,7.08
2023-03-03T12:23:26.310Z,7.08
2023-03-03T12:24:44.451Z,7.08
2023-03-03T12:25:55.909Z,7.12
2023-03-03T12:27:10.564Z,7.11
2023-03-03T12:28:19.921Z,7.08
2023-03-03T12:29:28.740Z,7.06
2023-03-03T12:30:52.018Z,7.06
2023-03-03T12:32:03.923Z,7.08
2023-03-03T12:33:31.334Z,7.10
2023-03-03T12:34:41.761Z,7.09
2023-03-03T12:35:52.892Z,7.07
2023-03-03T12:37:22.364Z,7.06
2023-03-03T12:38:36.187Z,7.06
2023-03-03T12:39:48.552Z,7.08
2023-03-03T12:40:58.979Z,7.12
2023-03-03T12:42:07.652Z,7.16
2023-03-03T12:43:24.424Z,7.21
2023-03-03T12:44:35.941Z,7.26
2023-03-03T12:45:50.542Z,7.32
2023-03-03T12:47:01.827Z,7.34
2023-03-03T12:48:11.001Z,7.33
2023-03-03T12:49:20.336Z,7.31
2023-03-03T12:50:43.303Z,7.31
2023-03-03T12:52:02.263Z,7.29
2023-03-03T12:53:17.462Z,7.29
2023-03-03T12:54:37.169Z,7.25
2023-03-03T12:55:49.562Z,7.20
2023-03-03T12:56:55.201Z,7.17
2023-03-03T12:58:06.175Z,7.17
2023-03-03T12:59:17.160Z,7.17
2023-03-03T13:00:32.847Z,7.13
2023-03-03T13:01:58.352Z,7.11
2023-03-03T13:03:14.807Z,7.10
2023-03-03T13:04:32.820Z,7.11
2023-03-03T13:05:48.646Z,7.11
2023-03-03T13:06:56.395Z,7.11
2023-03-03T13:08:20.899Z,7.10
2023-03-03T13:09:47.064Z,7.09
2023-03-03T13:10:58.219Z,7.13
2023-03-03T13:12:19.344Z,7.16
2023-03-03T13:13:28.156Z,7.19
2023-03-03T13:14:37.451Z,7.17
2023-03-03T13:15:55.197Z,7.16
2023-03-03T13:17:10.502Z,7.14
2023-03-03T13:18:30.628Z,7.11
2023-03-03T13:19:41.660Z,7.08
2023-03-03T13:20:52.281Z,7.08
2023-03-03T13:22:01.380Z,7.11
2023-03-03T13:23:08.839Z,7.18
2023-03-03T13:24:19.639Z,7.24
2023-03-03T13:25:42.061Z,7.28
2023-03-03T13:26:48.791Z,7.31
2023-03-03T13:27:56.370Z,7.36
2023-03-03T13:29:05.675Z,7.40
2023-03-03T13:30:16.765Z,7.41
2023-03-03T13:31:27.764Z,7.41
2023-03-03T13:32:37.945Z,7.37
2023-03-03T13:33:48.856Z,7.38
2023-03-03T13:35:00.684Z,7.36
2023-03-03T13:36:07.269Z,7.33
2023-03-03T13:37:16.976Z,7.31
2023-03-03T13:38:24.051Z,7.30
2023-03-03T13:39:30.892Z,7.29
2023-03-03T13:40:41.394Z,7.26
2023-03-03T13:41:51.674Z,7.22
2023-03-03T13:42:57.815Z,7.20
2023-03-03T13:44:04.876Z,7.19
2023-03-03T13:45:16.338Z,7.20
2023-03-03T13:46:29.546Z,7.21
2023-03-03T13:47:39.399Z,7.22
2023-03-03T13:48:56.962Z,7.22
2023-03-03T13:50:18.289Z,7.23
2023-03-03T13:51:29.341Z,7.22
2023-03-03T13:52:34.901Z,7.25
2023-03-03T13:53:49.643Z,7.28
2023-03-03T13:55:14.528Z,7.34
2023-03-03T13:56:44.612Z,7.41
2023-03-03T13:58:04.411Z,7.44
2023-03-03T13:59:18.429Z,7.49
2023-03-03T14:00:31.896Z,7.49
2023-03-03T14:01:48.134Z,7.49
2023-03-03T14:03:09.573Z,7.48
2023-03-03T14:04:17.624Z,7.48
2023-03-03T14:05:29.691Z,7.47
2023-03-03T14:06:32.831Z,7.50
2023-03-03T14:07:38.806Z,7.50
2023-03-03T14:09:01.577Z,7.52
2023-03-03T14:10:10.802Z,7.50
2023-03-03T14:11:20.655Z,7.50
2023-03-03T14:12:29.778Z,7.50
2023-03-03T14:13:40.667Z,7.49
2023-03-03T14:14:53.963Z,7.48
2023-03-03T14:15:59.651Z,7.44
2023-03-03T14:17:05.343Z,7.40
2023-03-03T14:18:22.735Z,7.34
2023-03-03T14:19:30.863Z,7.26
2023-03-03T14:20:38.977Z,7.19
2023-03-03T14:21:47.872Z,7.13
2023-03-03T14:22:54.627Z,7.12
2023-03-03T14:24:04.442Z,7.09
2023-03-03T14:25:09.781Z,7.06
2023-03-03T14:26:14.031Z,7.03
2023-03-03T14:27:26.232Z,7.06
2023-03-03T14:28:40.422Z,7.06
2023-03-03T14:29:42.989Z,7.06
2023-03-03T14:30:45.831Z,7.06
2023-03-03T14:31:47.743Z,7.07
2023-03-03T14:33:01.386Z,7.09
2023-03-03T14:34:30.937Z,7.10
2023-03-03T14:35:36.426Z,7.11
2023-03-03T14:36:42.156Z,7.11
2023-03-03T14:37:45.496Z,7.09
2023-03-03T14:38:51.610Z,7.09
2023-03-03T14:40:17.030Z,7.07
2023-03-03T14:41:22.918Z,7.06
2023-03-03T14:42:33.843Z,7.02
2023-03-03T14:43:57.660Z,6.99
2023-03-03T14:45:29.423Z,6.91
2023-03-03T14:46:36.472Z,6.91
2023-03-03T14:47:45.947Z,6.89
2023-03-03T14:48:52.395Z,6.88
2023-03-03T14:49:59.910Z,6.87
2023-03-03T14:51:25.384Z,6.86
2023-03-03T14:52:29.615Z,6.85
2023-03-03T14:53:35.520Z,6.85
2023-03-03T14:54:41.362Z,6.85
2023-03-03T14:55:46.186Z,6.88
2023-03-03T14:57:00.879Z,6.89
2023-03-03T14:58:04.176Z,6.90
2023-03-03T14:59:17.953Z,6.91
2023-03-03T15:00:35.925Z,6.91
2023-03-03T15:01:43.012Z,6.90
2023-03-03T15:02:58.764Z,6.90
2023-03-03T15:04:02.872Z,6.90
2023-03-03T15:05:21.984Z,6.92
2023-03-03T15:06:37.204Z,6.93
2023-03-03T15:07:40.014Z,6.94
2023-03-03T15:08:43.327Z,6.92
2023-03-03T15:09:51.389Z,6.91
2023-03-03T15:10:53.088Z,6.92
2023-03-03T15:11:57.074Z,6.92
2023-03-03T15:13:09.221Z,6.92
2023-03-03T15:14:14.852Z,6.93
2023-03-03T15:15:20.227Z,6.92
2023-03-03T15:16:23.301Z,6.91
2023-03-03T15:17:34.504Z,6.91
2023-03-03T15:19:00.371Z,6.92
2023-03-03T15:20:32.252Z,6.92
2023-03-03T15:21:39.753Z,6.92
2023-03-03T15:22:49.407Z,6.92
2023-03-03T15:23:58.246Z,6.92
2023-03-03T15:25:05.288Z,6.93
2023-03-03T15:26:13.811Z,6.94
2023-03-03T15:27:21.597Z,6.95
2023-03-03T15:28:33.833Z,6.97
2023-03-03T15:29:41.234Z,6.99
2023-03-03T15:30:51.476Z,6.99
2023-03-03T15:32:01.971Z,6.99
2023-03-03T15:33:14.173Z,7.00
2023-03-03T15:34:26.671Z,6.99
2023-03-03T15:35:39.883Z,6.99
2023-03-03T15:36:51.759Z,7.00
2023-03-03T15:37:59.826Z,6.99
2023-03-03T15:39:17.694Z,6.98
2023-03-03T15:40:26.772Z,6.98
2023-03-03T15:41:39.412Z,6.96
2023-03-03T15:42:49.316Z,6.98
2023-03-03T15:44:06.691Z,6.99
2023-03-03T15:45:22.625Z,7.00
2023-03-03T15:46:36.230Z,6.99
2023-03-03T15:47:53.445Z,7.01
2023-03-03T15:49:11.630Z,7.03
2023-03-03T15:50:29.889Z,7.00
2023-03-03T15:52:02.248Z,7.00
2023-03-03T15:53:17.052Z,6.98
2023-03-03T15:54:42.128Z,6.98